Tsaile, Arizona
Current Conditions -  °F | °C
As of 12:53 PM on Monday 24 Nov 2014 (Local Time) from KGUP Reporting Station
Broken Clouds Broken Clouds  
Wind Chill: 32°   Ceiling: 9000
Heat Index: 42°   Visibility: 10mi
Dew Point:   Wind: 26mph
Humidity: 18%   Direction: 330°NNW
Pressure: 30.16"   Gusts: 33mph
Location:  36.3°N, 109.22°W
Report Text: KGUP 241953Z AUTO 33023G29KT 10SM BKN090 06/M17 A3016 RMK AO2 PK WND 33032/1928 WSHFT 1915 SLP246 T00561172
Loading
Personal Weather Stations






























Interactive Weather Map New forecast layout! Learn more

10-Day Weather Forecast

Advertisements
Track Severe Weather on mobile